Time;durP1;ratioP1;P1;durP2;ratioP2;P2;SDS_P1;SDS_P2;PMS_P1;PMS_P2;Temp;Humidity;BMP_temperature;BMP_pressure;BME280_temperature;BME280_humidity;BME280_pressure;Samples;Min_cycle;Max_cycle;Signal;HPM_P1;HPM_P2
2022/07/01 00:00:10;;;;;;;8.27;2.63;;;;;;;18.19;83.76;95975.84;4853356;29;20054;-77
2022/07/01 00:02:38;;;;;;;5.45;2.72;;;;;;;18.03;84.70;95987.06;4853980;29;20077;-79
2022/07/01 00:05:05;;;;;;;5.00;2.67;;;;;;;18.22;83.82;95984.16;4853129;29;20109;-78
2022/07/01 00:07:31;;;;;;;6.18;2.60;;;;;;;18.44;82.74;95982.41;4855121;29;20059;-78
2022/07/01 00:09:57;;;;;;;10.00;3.00;;;;;;;18.54;81.83;95999.47;4857581;29;20469;-78
2022/07/01 00:12:24;;;;;;;7.88;2.58;;;;;;;18.61;80.96;96010.56;4857294;29;20064;-78
2022/07/01 00:14:50;;;;;;;5.28;2.50;;;;;;;18.60;81.51;96011.72;4857504;29;20545;-79
2022/07/01 00:17:17;;;;;;;6.07;2.83;;;;;;;18.36;82.35;96016.56;4857093;29;20604;-77
2022/07/01 00:19:45;;;;;;;6.90;3.25;;;;;;;18.31;83.19;96024.38;4857609;29;20048;-80
2022/07/01 00:22:11;;;;;;;5.50;2.90;;;;;;;18.39;82.56;96035.13;4856679;29;20061;-78
2022/07/01 00:24:38;;;;;;;5.95;2.95;;;;;;;18.61;82.62;96038.13;4857065;29;20057;-78
2022/07/01 00:27:05;;;;;;;8.13;3.00;;;;;;;18.69;81.85;96045.34;4856794;29;20053;-79
2022/07/01 00:29:32;;;;;;;4.47;2.78;;;;;;;18.81;81.57;96058.06;4857249;29;20053;-78
2022/07/01 00:31:59;;;;;;;8.13;3.70;;;;;;;18.65;82.28;96056.31;4857132;29;20068;-79
2022/07/01 00:34:25;;;;;;;7.70;4.25;;;;;;;18.81;82.16;96058.88;4856583;29;20081;-78
2022/07/01 00:36:53;;;;;;;8.07;3.45;;;;;;;18.81;82.23;96060.84;4856780;29;20049;-77
2022/07/01 00:39:20;;;;;;;9.55;3.75;;;;;;;18.82;82.36;96071.47;4855907;29;20429;-78
2022/07/01 00:41:46;;;;;;;6.25;3.88;;;;;;;18.96;82.32;96068.88;4856876;29;20057;-77
2022/07/01 00:44:19;;;;;;;6.13;3.95;;;;;;;18.98;82.63;96074.78;4856269;29;20403;-78
2022/07/01 00:46:47;;;;;;;7.85;3.90;;;;;;;18.90;82.75;96084.19;4856926;29;20057;-78
2022/07/01 00:49:14;;;;;;;7.53;3.72;;;;;;;18.94;82.22;96085.00;4856541;29;20064;-79
2022/07/01 00:51:40;;;;;;;8.55;4.10;;;;;;;18.80;83.47;96095.91;4856726;29;20058;-79
2022/07/01 00:54:08;;;;;;;7.38;3.70;;;;;;;18.85;83.37;96100.28;4855750;29;20261;-78
2022/07/01 00:56:35;;;;;;;7.35;4.20;;;;;;;18.78;83.61;96109.25;4856650;29;20061;-77
2022/07/01 00:59:01;;;;;;;8.15;4.05;;;;;;;18.66;84.36;96110.28;4856073;29;20430;-76
2022/07/01 01:01:28;;;;;;;10.52;4.30;;;;;;;18.64;84.88;96103.56;4856410;29;20049;-80
2022/07/01 01:03:55;;;;;;;11.48;4.07;;;;;;;18.49;85.57;96103.41;4857442;29;20053;-77
2022/07/01 01:06:22;;;;;;;5.88;4.30;;;;;;;18.55;85.11;96100.31;4856078;29;20477;-78
2022/07/01 01:08:49;;;;;;;10.25;4.25;;;;;;;18.56;84.66;96102.69;4856243;29;20049;-78
2022/07/01 01:11:18;;;;;;;7.07;4.05;;;;;;;18.56;84.65;96110.16;4855661;29;20410;-78
2022/07/01 01:13:44;;;;;;;5.55;3.67;;;;;;;18.45;84.10;96110.03;4856210;29;20083;-78
2022/07/01 01:16:18;;;;;;;7.45;3.78;;;;;;;18.43;82.93;96104.91;4856021;29;20053;-77
2022/07/01 01:18:44;;;;;;;4.18;3.00;;;;;;;18.46;81.81;96108.84;4855402;29;20512;-78
2022/07/01 01:21:12;;;;;;;4.22;2.72;;;;;;;18.58;80.05;96110.56;4855841;29;20140;-80
2022/07/01 01:23:39;;;;;;;3.08;2.10;;;;;;;18.60;78.38;96108.25;4856165;29;20721;-77
2022/07/01 01:26:16;;;;;;;3.65;2.15;;;;;;;18.62;78.66;96111.41;4855808;29;20056;-77
2022/07/01 01:28:43;;;;;;;4.07;2.42;;;;;;;18.54;78.81;96113.31;4856036;29;20076;-78
2022/07/01 01:31:10;;;;;;;4.88;2.50;;;;;;;18.56;78.53;96118.44;4855573;29;20060;-78
2022/07/01 01:33:37;;;;;;;4.72;2.40;;;;;;;18.59;78.74;96123.22;4855665;29;20064;-77
2022/07/01 01:36:04;;;;;;;5.10;2.65;;;;;;;18.68;78.89;96121.75;4855260;29;20514;-78
2022/07/01 01:38:32;;;;;;;5.57;2.80;;;;;;;18.78;79.12;96123.06;4855697;29;20796;-79
2022/07/01 01:40:59;;;;;;;4.85;2.80;;;;;;;18.84;78.72;96118.00;4855927;29;20058;-79
2022/07/01 01:43:25;;;;;;;5.78;3.00;;;;;;;19.01;77.70;96123.72;4855587;29;20045;-78
2022/07/01 01:45:51;;;;;;;3.42;2.60;;;;;;;18.95;77.78;96116.97;4855927;29;20541;-76
2022/07/01 01:48:18;;;;;;;4.05;2.50;;;;;;;18.88;77.51;96118.84;4855612;29;20869;-77
2022/07/01 01:50:44;;;;;;;4.82;2.47;;;;;;;18.77;78.08;96119.50;4855708;29;20057;-78
2022/07/01 01:53:11;;;;;;;3.92;2.00;;;;;;;18.91;77.55;96124.41;4855048;29;20707;-78
2022/07/01 01:55:39;;;;;;;4.55;2.42;;;;;;;18.67;78.25;96135.91;4855824;29;20060;-78
2022/07/01 01:58:05;;;;;;;4.78;2.60;;;;;;;18.74;77.94;96125.78;4855064;29;20054;-78
2022/07/01 02:00:32;;;;;;;4.55;2.40;;;;;;;18.78;78.11;96125.81;4855657;29;20049;-78
2022/07/01 02:02:58;;;;;;;3.28;2.35;;;;;;;18.76;78.70;96117.13;4855774;29;20553;-78
2022/07/01 02:05:24;;;;;;;4.97;2.53;;;;;;;18.55;79.51;96109.38;4854801;29;20054;-77
2022/07/01 02:07:51;;;;;;;4.85;2.53;;;;;;;18.41;79.97;96120.22;4855414;29;20049;-78
2022/07/01 02:10:18;;;;;;;6.07;2.78;;;;;;;18.33;80.95;96110.28;4854771;29;20057;-78
2022/07/01 02:12:47;;;;;;;6.32;2.58;;;;;;;18.26;80.99;96113.72;4855299;29;20145;-79
2022/07/01 02:15:13;;;;;;;3.42;2.72;;;;;;;18.14;81.64;96114.75;4854636;29;20581;-78
2022/07/01 02:17:40;;;;;;;4.10;2.83;;;;;;;18.23;81.85;96117.22;4855319;29;20246;-78
2022/07/01 02:20:07;;;;;;;4.75;2.78;;;;;;;18.31;81.41;96123.63;4854892;29;20057;-78
2022/07/01 02:22:34;;;;;;;3.53;2.30;;;;;;;18.48;80.78;96134.91;4855421;29;20045;-78
2022/07/01 02:25:00;;;;;;;3.83;2.50;;;;;;;18.57;80.55;96136.56;4854749;29;20580;-79
2022/07/01 02:27:27;;;;;;;3.05;2.30;;;;;;;18.64;79.92;96137.47;4855305;29;20053;-79
2022/07/01 02:29:54;;;;;;;3.35;2.50;;;;;;;18.65;79.96;96152.03;4854786;29;20049;-80
2022/07/01 02:32:21;;;;;;;3.03;2.25;;;;;;;18.68;79.37;96156.81;4854174;29;20065;-78
2022/07/01 02:34:47;;;;;;;4.03;2.70;;;;;;;18.55;79.43;96160.97;4853177;29;20057;-79
2022/07/01 02:37:14;;;;;;;7.45;3.03;;;;;;;18.42;79.84;96163.94;4854616;29;20050;-78
2022/07/01 02:39:40;;;;;;;4.93;2.50;;;;;;;18.38;79.92;96168.63;4854589;29;20053;-78
2022/07/01 02:42:26;;;;;;;7.88;2.40;;;;;;;18.31;79.24;96174.03;4854158;29;20064;-78
2022/07/01 02:44:53;;;;;;;2.65;1.60;;;;;;;18.23;78.47;96175.09;4854411;29;20078;-77
2022/07/01 02:47:21;;;;;;;2.80;1.75;;;;;;;18.23;77.89;96177.88;4854305;29;20060;-78
2022/07/01 02:49:47;;;;;;;1.90;1.70;;;;;;;18.30;77.26;96182.69;4854747;29;20060;-78
2022/07/01 02:52:15;;;;;;;3.10;1.42;;;;;;;18.19;77.93;96193.53;4855909;29;20057;-80
2022/07/01 02:54:41;;;;;;;1.70;1.10;;;;;;;18.22;77.22;96187.31;4855332;29;20049;-79
2022/07/01 02:57:08;;;;;;;3.50;1.20;;;;;;;17.94;77.93;96177.41;4854236;29;20058;-78
2022/07/01 02:59:35;;;;;;;2.20;1.25;;;;;;;17.89;77.64;96183.25;4854951;29;20488;-78
2022/07/01 03:02:01;;;;;;;1.95;1.30;;;;;;;17.66;78.52;96187.97;4853902;29;20069;-78
2022/07/01 03:04:29;;;;;;;2.85;1.02;;;;;;;17.80;78.74;96196.50;4854469;29;20045;-78
2022/07/01 03:06:56;;;;;;;2.25;1.00;;;;;;;17.71;78.03;96206.94;4854701;29;20041;-79
2022/07/01 03:09:23;;;;;;;2.47;0.95;;;;;;;17.66;79.28;96212.75;4853958;29;20045;-80
2022/07/01 03:11:49;;;;;;;2.22;0.90;;;;;;;17.85;78.67;96201.66;4854568;29;20053;-79
2022/07/01 03:14:16;;;;;;;3.25;1.10;;;;;;;17.73;79.16;96215.63;4853564;29;20049;-78
2022/07/01 03:16:42;;;;;;;7.65;1.20;;;;;;;17.76;80.26;96220.41;4854438;29;20052;-78
2022/07/01 03:19:09;;;;;;;1.92;0.70;;;;;;;17.83;79.04;96214.22;4853847;29;20054;-78
2022/07/01 03:21:37;;;;;;;2.53;0.90;;;;;;;17.90;79.49;96219.84;4854277;29;20061;-78
2022/07/01 03:24:03;;;;;;;2.08;0.90;;;;;;;17.98;79.58;96222.34;4852986;29;20046;-78
2022/07/01 03:26:30;;;;;;;1.25;0.80;;;;;;;18.06;78.80;96222.47;4854495;29;20057;-78
2022/07/01 03:28:56;;;;;;;1.67;1.00;;;;;;;17.98;78.46;96216.84;4854223;29;20088;-78
2022/07/01 03:31:23;;;;;;;1.42;0.93;;;;;;;17.96;79.08;96218.41;4853564;29;20053;-77
2022/07/01 03:33:49;;;;;;;1.23;1.00;;;;;;;17.97;80.12;96215.25;4854045;29;20076;-78
2022/07/01 03:36:16;;;;;;;2.88;0.93;;;;;;;18.06;79.37;96212.22;4853835;29;20080;-78
2022/07/01 03:38:44;;;;;;;1.63;0.85;;;;;;;18.07;78.98;96219.34;4853693;29;20061;-78
2022/07/01 03:41:11;;;;;;;1.40;1.00;;;;;;;18.07;79.00;96222.13;4853177;29;20080;-78
2022/07/01 03:43:37;;;;;;;1.60;1.10;;;;;;;18.03;79.69;96224.00;4853448;29;20052;-78
2022/07/01 03:46:03;;;;;;;1.33;1.00;;;;;;;18.00;79.58;96222.78;4853162;29;20057;-78
2022/07/01 03:48:30;;;;;;;1.25;1.02;;;;;;;17.84;80.20;96221.31;4853801;29;20053;-77
2022/07/01 03:50:56;;;;;;;3.25;1.10;;;;;;;17.79;80.47;96230.69;4853755;29;20061;-77
2022/07/01 03:56:08;;;;;;;1.25;1.00;;;;;;;17.88;80.62;96222.97;4853243;29;20055;-77
2022/07/01 03:58:35;;;;;;;0.88;0.80;;;;;;;17.92;80.34;96223.84;4853306;29;20053;-77
2022/07/01 04:01:01;;;;;;;4.18;1.02;;;;;;;17.99;80.45;96234.97;4852903;29;20061;-77
2022/07/01 04:03:27;;;;;;;1.42;0.75;;;;;;;17.91;80.40;96225.00;4853460;29;20049;-82
2022/07/01 04:05:54;;;;;;;1.30;0.90;;;;;;;18.03;80.33;96228.72;4853425;29;20049;-78
2022/07/01 04:08:20;;;;;;;2.42;1.00;;;;;;;17.81;80.71;96239.41;4852955;29;20054;-78
2022/07/01 04:10:48;;;;;;;1.83;1.00;;;;;;;17.87;81.02;96243.44;4853023;29;20049;-77
2022/07/01 04:13:15;;;;;;;2.13;1.08;;;;;;;17.94;81.26;96242.75;4852238;29;20050;-79
2022/07/01 04:15:42;;;;;;;1.15;0.70;;;;;;;18.07;80.95;96235.09;4852908;29;20425;-78
2022/07/01 04:18:08;;;;;;;1.75;0.90;;;;;;;18.04;81.23;96233.06;4852745;29;20050;-80
2022/07/01 04:20:35;;;;;;;1.30;1.10;;;;;;;18.01;80.92;96237.38;4853446;29;20137;-79
2022/07/01 04:23:00;;;;;;;1.20;1.00;;;;;;;18.10;80.83;96223.31;4853356;29;20053;-77
2022/07/01 04:25:29;;;;;;;2.92;0.90;;;;;;;18.11;80.40;96222.16;4853345;29;20057;-78
2022/07/01 04:27:56;;;;;;;3.33;1.02;;;;;;;18.18;81.41;96227.78;4853556;29;20069;-77
2022/07/01 04:30:24;;;;;;;1.98;1.10;;;;;;;18.23;80.48;96230.22;4852793;29;20053;-78
2022/07/01 04:32:50;;;;;;;2.33;1.20;;;;;;;18.26;80.57;96227.50;4853915;29;20056;-78
2022/07/01 04:35:17;;;;;;;3.05;1.10;;;;;;;18.25;80.55;96230.66;4852091;29;20053;-79
2022/07/01 04:37:44;;;;;;;2.92;1.38;;;;;;;18.31;80.54;96229.16;4853620;29;20045;-78
2022/07/01 04:40:10;;;;;;;2.47;1.20;;;;;;;18.35;80.82;96235.53;4854943;29;20057;-79
2022/07/01 04:42:36;;;;;;;1.95;1.08;;;;;;;18.42;80.35;96224.59;4855857;29;20676;-77
2022/07/01 04:45:02;;;;;;;4.38;1.10;;;;;;;18.43;79.80;96228.97;4854039;29;20069;-78
2022/07/01 04:47:32;;;;;;;2.97;1.10;;;;;;;18.34;79.50;96225.66;4854853;29;20057;-81
2022/07/01 04:50:01;;;;;;;1.65;1.00;;;;;;;18.33;79.60;96215.03;4854249;29;20061;-79
2022/07/01 04:52:28;;;;;;;1.27;1.10;;;;;;;18.35;80.33;96213.47;4854002;29;20042;-78
2022/07/01 04:54:54;;;;;;;1.50;1.15;;;;;;;18.35;80.88;96221.75;4856282;29;20064;-78
2022/07/01 05:00:43;;;;;;;2.17;1.10;;;;;;;18.31;79.81;96217.34;4854900;29;20084;-79
2022/07/01 05:03:11;;;;;;;2.55;1.10;;;;;;;18.39;80.52;96225.34;4856530;29;20144;-78
2022/07/01 05:05:37;;;;;;;1.67;1.05;;;;;;;18.40;80.11;96221.41;4856310;29;20060;-78
2022/07/01 05:08:04;;;;;;;1.98;1.20;;;;;;;18.35;79.89;96218.97;4856345;29;20049;-79
2022/07/01 05:10:31;;;;;;;2.53;1.00;;;;;;;18.47;79.76;96221.50;4856345;29;20441;-80
2022/07/01 05:12:57;;;;;;;1.38;1.20;;;;;;;18.57;79.53;96224.81;4856419;29;20054;-78
2022/07/01 05:15:24;;;;;;;1.45;1.17;;;;;;;18.41;79.50;96225.75;4855576;29;20554;-78
2022/07/01 05:23:20;;;;;;;2.63;1.20;;;;;;;18.45;79.98;96212.84;4855936;29;20473;-79
2022/07/01 05:25:47;;;;;;;3.05;1.20;;;;;;;18.55;79.56;96216.13;4856500;29;20048;-79
2022/07/01 05:28:14;;;;;;;1.45;1.02;;;;;;;18.48;79.82;96212.09;4855540;29;20053;-78
2022/07/01 05:30:40;;;;;;;3.38;1.20;;;;;;;18.52;80.41;96210.16;4856190;29;20049;-78
2022/07/01 05:33:07;;;;;;;1.95;1.15;;;;;;;18.63;79.83;96217.78;4855919;29;20053;-78
2022/07/01 05:35:33;;;;;;;1.42;1.00;;;;;;;18.61;79.69;96220.94;4856099;29;20048;-77
2022/07/01 05:38:01;;;;;;;1.65;1.25;;;;;;;18.71;79.12;96222.28;4855898;29;20076;-76
2022/07/01 05:40:27;;;;;;;2.53;1.27;;;;;;;18.62;78.28;96221.72;4855254;29;20069;-78
2022/07/01 05:42:54;;;;;;;1.85;1.30;;;;;;;18.64;77.54;96225.72;4855969;29;20060;-77
2022/07/01 05:45:20;;;;;;;1.23;1.05;;;;;;;18.58;78.82;96226.38;4854973;29;20130;-77
2022/07/01 05:47:47;;;;;;;2.97;1.30;;;;;;;18.60;80.72;96229.59;4855885;29;20050;-75
2022/07/01 05:50:14;;;;;;;3.42;1.35;;;;;;;18.65;79.45;96243.84;4855124;29;20065;-76
2022/07/01 05:52:42;;;;;;;2.15;1.23;;;;;;;18.69;78.41;96249.44;4855327;29;20532;-77
2022/07/01 05:55:10;;;;;;;2.20;1.38;;;;;;;18.66;78.09;96255.66;4854724;29;20049;-77
2022/07/01 05:57:37;;;;;;;2.25;1.20;;;;;;;18.68;78.59;96259.66;4855381;29;20061;-77
2022/07/01 06:00:04;;;;;;;2.13;1.30;;;;;;;18.66;78.43;96241.88;4855331;29;20057;-76
2022/07/01 06:02:30;;;;;;;2.63;1.10;;;;;;;18.76;79.38;96239.28;4855361;29;20060;-78
2022/07/01 06:04:59;;;;;;;2.63;1.30;;;;;;;18.73;79.71;96244.75;4854728;29;20053;-78
2022/07/01 06:07:25;;;;;;;2.67;1.35;;;;;;;18.72;80.30;96227.41;4855084;29;20049;-77
2022/07/01 06:09:52;;;;;;;3.05;1.30;;;;;;;18.87;78.94;96239.44;4855364;29;20037;-79
2022/07/01 06:12:19;;;;;;;3.28;1.33;;;;;;;18.80;79.30;96257.88;4854273;29;20049;-77
2022/07/01 06:14:46;;;;;;;1.85;1.30;;;;;;;18.73;78.93;96272.34;4855133;29;20061;-78
2022/07/01 06:17:13;;;;;;;1.77;1.20;;;;;;;18.70;79.27;96282.16;4854741;29;20054;-78
2022/07/01 06:19:40;;;;;;;2.33;1.45;;;;;;;18.78;78.12;96285.81;4855484;29;20054;-78
2022/07/01 06:22:07;;;;;;;1.90;1.05;;;;;;;18.67;79.38;96279.31;4854953;29;20211;-77
2022/07/01 06:24:34;;;;;;;3.40;1.60;;;;;;;18.56;79.68;96276.41;4855187;29;20057;-77
2022/07/01 06:27:00;;;;;;;1.48;1.00;;;;;;;18.65;80.65;96287.19;4856257;29;20049;-77
2022/07/01 06:29:29;;;;;;;3.15;1.55;;;;;;;18.45;80.11;96284.50;4855807;29;20806;-77
2022/07/01 06:31:55;;;;;;;1.83;1.40;;;;;;;18.46;80.51;96286.09;4855504;29;20056;-79
2022/07/01 06:34:22;;;;;;;2.63;1.33;;;;;;;18.56;80.20;96283.88;4852416;29;20049;-77
2022/07/01 06:36:48;;;;;;;4.20;1.80;;;;;;;18.39;82.83;96288.75;4855122;29;20049;-78
2022/07/01 06:39:15;;;;;;;3.03;1.70;;;;;;;18.23;83.79;96304.66;4854557;29;20064;-78
2022/07/01 06:41:41;;;;;;;2.15;1.33;;;;;;;18.30;83.44;96299.25;4854674;29;20090;-79
2022/07/01 06:44:08;;;;;;;2.42;1.50;;;;;;;18.37;83.04;96309.56;4854531;29;20049;-78
2022/07/01 06:46:36;;;;;;;2.72;1.35;;;;;;;18.42;81.42;96309.25;4854731;29;20141;-78
2022/07/01 06:49:03;;;;;;;4.55;2.00;;;;;;;18.34;82.75;96319.41;4854011;29;20628;-77
2022/07/01 06:51:30;;;;;;;3.00;1.30;;;;;;;18.17;82.15;96323.47;4854658;29;20061;-79
2022/07/01 06:53:56;;;;;;;3.80;2.10;;;;;;;18.32;81.81;96335.50;4854488;29;20136;-77
2022/07/01 06:56:23;;;;;;;1.70;1.40;;;;;;;18.18;82.14;96330.56;4854294;29;20053;-79
2022/07/01 06:58:49;;;;;;;2.53;1.80;;;;;;;18.13;82.83;96332.81;4854721;29;20049;-79
2022/07/01 07:01:16;;;;;;;1.60;1.27;;;;;;;18.10;82.69;96328.03;4853933;29;20060;-80
2022/07/01 07:03:44;;;;;;;2.47;1.80;;;;;;;18.24;82.97;96325.53;4854206;29;20054;-77
2022/07/01 07:06:10;;;;;;;1.75;1.50;;;;;;;18.26;82.81;96315.72;4853720;29;20547;-77
2022/07/01 07:08:37;;;;;;;2.97;1.75;;;;;;;18.25;81.90;96324.34;4854333;29;20080;-78
2022/07/01 07:11:06;;;;;;;2.45;1.42;;;;;;;18.29;81.52;96318.91;4853872;29;20050;-78
2022/07/01 07:13:33;;;;;;;2.20;1.33;;;;;;;18.22;80.98;96311.31;4854072;29;20533;-77
2022/07/01 07:15:59;;;;;;;2.40;1.52;;;;;;;18.46;80.91;96310.13;4854096;29;20059;-79
2022/07/01 07:18:26;;;;;;;2.38;1.20;;;;;;;18.47;79.86;96314.47;4852954;29;20056;-78
2022/07/01 07:20:54;;;;;;;3.30;1.98;;;;;;;18.56;80.08;96322.50;4854395;29;20049;-78
2022/07/01 07:23:20;;;;;;;3.55;1.45;;;;;;;18.72;79.26;96317.63;4853471;29;20057;-80
2022/07/01 07:25:47;;;;;;;3.05;1.38;;;;;;;18.85;78.71;96318.25;4854112;29;20541;-78
2022/07/01 07:28:14;;;;;;;5.03;1.50;;;;;;;18.86;78.54;96319.81;4853701;29;20057;-78
2022/07/01 07:30:40;;;;;;;1.88;1.58;;;;;;;18.86;78.85;96326.13;4854011;29;20057;-79
2022/07/01 07:33:07;;;;;;;2.05;1.45;;;;;;;18.67;79.15;96317.94;4853825;29;20056;-77
2022/07/01 07:35:33;;;;;;;2.75;1.80;;;;;;;18.52;79.91;96325.97;4853641;29;20046;-78
2022/07/01 07:38:01;;;;;;;2.13;1.65;;;;;;;18.72;80.24;96326.72;4854165;29;20053;-77
2022/07/01 07:40:28;;;;;;;3.17;1.80;;;;;;;18.64;80.32;96324.19;4853566;29;20056;-78
2022/07/01 07:42:54;;;;;;;2.80;1.50;;;;;;;18.83;79.74;96318.59;4854051;29;20080;-79
2022/07/01 07:45:21;;;;;;;2.40;1.40;;;;;;;18.92;78.64;96321.88;4853061;29;20061;-78
2022/07/01 07:47:49;;;;;;;5.35;1.58;;;;;;;18.74;80.37;96320.81;4853953;29;20045;-78
2022/07/01 07:50:16;;;;;;;6.15;1.88;;;;;;;18.81;81.66;96326.44;4853464;29;20053;-77
2022/07/01 07:52:43;;;;;;;8.02;2.10;;;;;;;18.65;80.23;96325.78;4853838;29;20053;-78
2022/07/01 07:55:11;;;;;;;5.45;1.73;;;;;;;18.66;81.52;96333.69;4852568;29;20049;-78
2022/07/01 07:57:38;;;;;;;5.90;1.75;;;;;;;18.54;79.50;96330.34;4853660;29;20502;-79
2022/07/01 08:00:06;;;;;;;2.63;2.20;;;;;;;18.56;78.43;96328.78;4853224;29;20054;-78
2022/07/01 08:02:33;;;;;;;6.03;2.50;;;;;;;18.43;79.32;96330.97;4853571;29;20060;-77
2022/07/01 08:05:02;;;;;;;3.15;2.03;;;;;;;18.36;80.56;96330.84;4853278;29;20049;-80
2022/07/01 08:07:28;;;;;;;2.45;2.00;;;;;;;18.02;81.72;96340.09;4853547;29;20520;-78
2022/07/01 08:09:55;;;;;;;2.90;1.65;;;;;;;18.12;82.29;96339.50;4853583;29;20057;-78
2022/07/01 08:12:26;;;;;;;3.85;1.80;;;;;;;17.93;82.47;96357.66;4853659;29;20060;-77
2022/07/01 08:14:52;;;;;;;2.45;1.48;;;;;;;17.79;82.00;96357.38;4853845;29;20061;-78
2022/07/01 08:17:19;;;;;;;1.95;1.50;;;;;;;17.89;82.24;96359.53;4853440;29;20049;-78
2022/07/01 08:19:45;;;;;;;3.10;1.80;;;;;;;17.74;82.55;96371.44;4853393;29;20049;-77
2022/07/01 08:22:12;;;;;;;2.30;1.58;;;;;;;17.25;84.76;96369.25;4853143;29;20049;-76
2022/07/01 08:24:38;;;;;;;2.22;1.45;;;;;;;16.92;86.67;96381.50;4852943;29;20053;-78
2022/07/01 08:27:05;;;;;;;4.50;1.65;;;;;;;17.07;86.48;96384.56;4853032;29;20065;-77
2022/07/01 08:29:33;;;;;;;4.38;1.80;;;;;;;17.14;86.47;96379.22;4856324;29;20053;-78
2022/07/01 08:31:59;;;;;;;2.47;1.55;;;;;;;16.94;86.72;96389.41;4857178;29;20053;-78
2022/07/01 08:34:26;;;;;;;2.63;1.80;;;;;;;16.94;87.21;96392.16;4856171;29;20057;-79
2022/07/01 08:36:53;;;;;;;2.60;1.60;;;;;;;16.96;86.86;96398.06;4856763;29;20085;-78
2022/07/01 08:39:19;;;;;;;3.40;1.95;;;;;;;16.77;87.26;96412.59;4856353;29;20072;-77
2022/07/01 08:41:46;;;;;;;3.28;1.60;;;;;;;16.72;87.67;96414.81;4856927;29;20056;-77
2022/07/01 08:44:12;;;;;;;3.03;1.83;;;;;;;16.68;87.55;96420.97;4856107;29;20045;-79
2022/07/01 08:46:41;;;;;;;2.60;1.60;;;;;;;16.64;86.89;96430.28;4856616;29;20054;-78
2022/07/01 08:49:08;;;;;;;2.67;1.50;;;;;;;16.53;87.15;96435.53;4856167;29;20056;-78
2022/07/01 08:51:34;;;;;;;2.42;1.50;;;;;;;16.35;87.90;96435.06;4857081;29;20053;-76
2022/07/01 08:54:01;;;;;;;2.28;1.50;;;;;;;16.10;88.49;96444.59;4856400;29;20064;-78
2022/07/01 08:56:43;;;;;;;3.33;1.27;;;;;;;15.94;89.37;96446.53;4856079;29;20041;-77
2022/07/01 08:59:10;;;;;;;2.45;1.60;;;;;;;15.88;89.14;96455.00;4854717;29;20708;-78
2022/07/01 09:01:38;;;;;;;5.32;1.60;;;;;;;16.03;85.09;96460.91;4856562;29;20057;-78
2022/07/01 09:04:17;;;;;;;2.55;1.88;;;;;;;15.99;82.64;96465.50;4855847;29;20061;-80
2022/07/01 09:06:44;;;;;;;5.97;1.48;;;;;;;15.81;83.34;96463.03;4856276;29;20057;-76
2022/07/01 09:09:13;;;;;;;3.03;1.35;;;;;;;15.14;86.38;96470.84;4855708;29;20051;-78
2022/07/01 09:11:45;;;;;;;2.42;1.08;;;;;;;15.11;85.30;96478.94;4856518;29;20057;-76
2022/07/01 09:14:14;;;;;;;1.97;0.97;;;;;;;14.93;84.36;96477.56;4855706;29;20064;-76
2022/07/01 09:16:42;;;;;;;2.10;0.85;;;;;;;14.78;85.22;96477.13;4856324;29;20056;-76
2022/07/01 09:19:08;;;;;;;1.70;1.00;;;;;;;14.64;85.89;96479.38;4855784;29;20049;-77
2022/07/01 09:21:36;;;;;;;2.10;1.25;;;;;;;14.72;86.78;96483.97;4856032;29;20055;-77
2022/07/01 09:24:05;;;;;;;2.58;1.17;;;;;;;14.63;87.46;96488.75;4855586;29;20521;-77
2022/07/01 09:26:32;;;;;;;3.60;1.10;;;;;;;14.82;87.29;96497.22;4856097;29;20049;-76
2022/07/01 09:29:00;;;;;;;3.55;1.50;;;;;;;14.65;89.44;96500.16;4856433;29;20053;-76
2022/07/01 09:31:33;;;;;;;4.43;1.77;;;;;;;14.49;89.60;96500.03;4855629;29;20715;-76
2022/07/01 09:34:04;;;;;;;2.85;1.52;;;;;;;14.20;90.31;96503.69;4855992;29;20065;-78
2022/07/01 09:36:31;;;;;;;1.80;1.48;;;;;;;14.10;89.34;96506.88;4855801;29;20037;-76
2022/07/01 09:39:04;;;;;;;4.03;1.55;;;;;;;14.40;88.11;96512.19;4855547;29;20433;-78
2022/07/01 09:41:37;;;;;;;5.75;1.50;;;;;;;14.39;86.06;96513.34;4854664;29;20046;-77
2022/07/01 09:44:08;;;;;;;3.30;1.92;;;;;;;14.43;86.25;96511.53;4855363;29;20053;-78
2022/07/01 09:46:34;;;;;;;2.92;1.42;;;;;;;14.51;86.84;96513.38;4856164;29;20072;-77
2022/07/01 09:49:01;;;;;;;2.53;1.63;;;;;;;14.37;87.38;96508.19;4855932;29;20054;-77
2022/07/01 09:51:28;;;;;;;4.07;2.42;;;;;;;14.18;86.20;96516.91;4855477;29;20069;-77
2022/07/01 09:53:56;;;;;;;5.28;1.50;;;;;;;14.15;86.41;96500.34;4855474;29;20079;-75
2022/07/01 09:56:24;;;;;;;4.60;2.00;;;;;;;14.15;85.61;96501.19;4854855;29;20056;-77
2022/07/01 09:58:51;;;;;;;3.60;1.67;;;;;;;14.27;84.32;96512.16;4855616;29;20061;-76
2022/07/01 10:01:18;;;;;;;4.35;1.60;;;;;;;14.34;82.89;96504.19;4855364;29;20076;-76
2022/07/01 10:03:44;;;;;;;2.28;1.55;;;;;;;14.42;83.12;96510.72;4855784;29;20061;-77
2022/07/01 10:06:34;;;;;;;3.25;1.45;;;;;;;14.53;83.13;96511.13;4854868;29;20054;-77
2022/07/01 10:09:14;;;;;;;3.55;1.67;;;;;;;14.69;81.82;96509.31;4855574;29;20169;-77
2022/07/01 10:12:02;;;;;;;4.30;2.03;;;;;;;14.65;82.94;96508.38;4855737;29;20041;-79
2022/07/01 10:14:31;;;;;;;2.25;1.60;;;;;;;14.81;83.16;96512.06;4854888;29;20066;-78
2022/07/01 10:16:58;;;;;;;3.20;2.40;;;;;;;14.78;82.50;96512.75;4855293;29;20042;-77
2022/07/01 10:19:29;;;;;;;2.13;1.35;;;;;;;14.77;81.56;96518.56;4854597;29;20056;-76
2022/07/01 10:22:00;;;;;;;4.45;1.67;;;;;;;14.80;79.89;96520.63;4855434;29;20203;-79
2022/07/01 10:24:28;;;;;;;3.47;1.10;;;;;;;14.99;79.60;96531.06;4854522;29;20624;-80
2022/07/01 10:27:01;;;;;;;1.50;1.00;;;;;;;14.97;79.04;96536.06;4855507;29;20077;-77
2022/07/01 10:29:32;;;;;;;2.65;1.20;;;;;;;14.89;78.88;96548.75;4855247;29;20110;-77
2022/07/01 10:32:02;;;;;;;2.55;1.10;;;;;;;14.85;78.74;96556.84;4854883;29;20057;-77
2022/07/01 10:34:35;;;;;;;1.27;0.80;;;;;;;14.96;77.99;96562.69;4854324;29;20046;-78
2022/07/01 10:37:03;;;;;;;2.22;1.00;;;;;;;15.17;77.78;96562.59;4854317;29;20053;-78
2022/07/01 10:39:30;;;;;;;1.23;0.90;;;;;;;15.27;78.73;96564.88;4854736;29;20041;-76
2022/07/01 10:42:03;;;;;;;1.60;0.85;;;;;;;15.14;79.74;96566.03;4854902;29;20056;-78
2022/07/01 10:44:34;;;;;;;;;;;;;;;15.13;80.68;96572.66;4854772;29;20363;-77
2022/07/01 10:47:04;;;;;;;4.20;1.10;;;;;;;15.04;80.23;96575.50;4855071;29;19976;-77
2022/07/01 10:49:58;;;;;;;3.33;0.93;;;;;;;14.85;81.00;96588.97;4854619;29;20053;-77
2022/07/01 10:52:25;;;;;;;2.45;1.13;;;;;;;14.59;83.89;96584.53;4854031;29;20053;-76
2022/07/01 10:54:55;;;;;;;5.97;1.05;;;;;;;14.59;85.37;96586.50;4854238;29;20076;-79
2022/07/01 10:57:41;;;;;;;2.97;1.20;;;;;;;14.69;87.24;96583.31;4854187;29;20073;-78
2022/07/01 11:00:32;;;;;;;2.72;1.20;;;;;;;14.84;86.75;96588.16;4835873;29;20450;-77
2022/07/01 11:03:11;;;;;;;3.88;1.70;;;;;;;14.67;89.60;96590.25;4836323;29;20057;-77
2022/07/01 11:05:37;;;;;;;1.50;1.13;;;;;;;14.55;89.52;96596.53;4835916;29;20070;-76
2022/07/01 11:08:06;;;;;;;1.02;0.88;;;;;;;14.77;87.39;96590.66;4835627;29;20061;-77
2022/07/01 11:10:33;;;;;;;2.67;1.33;;;;;;;14.50;88.32;96589.31;4835973;29;20060;-77
2022/07/01 11:13:01;;;;;;;2.33;1.30;;;;;;;14.34;90.56;96591.84;4835999;29;20080;-78
2022/07/01 11:15:29;;;;;;;2.08;1.38;;;;;;;14.38;90.24;96602.13;4835672;29;20510;-77
2022/07/01 11:17:57;;;;;;;2.35;1.42;;;;;;;14.29;91.87;96603.00;4835911;29;20054;-78
2022/07/01 11:20:24;;;;;;;2.13;1.45;;;;;;;14.10;91.32;96594.50;4835467;29;20057;-76
2022/07/01 11:22:52;;;;;;;2.88;1.38;;;;;;;14.13;93.44;96593.81;4835825;29;20061;-76
2022/07/01 11:25:20;;;;;;;2.55;1.60;;;;;;;13.99;95.10;96602.31;4835276;29;20425;-78
2022/07/01 11:27:48;;;;;;;2.65;1.58;;;;;;;14.28;93.45;96606.88;4838696;29;20053;-78
2022/07/01 11:30:17;;;;;;;4.10;1.80;;;;;;;14.23;95.60;96612.56;4853652;29;20065;-77
2022/07/01 11:32:46;;;;;;;3.40;1.75;;;;;;;14.18;95.47;96610.03;4853689;29;20402;-78
2022/07/01 11:40:56;;;;;;;4.47;2.22;;;;;;;14.09;97.27;96596.44;4853652;29;20064;-78
2022/07/01 11:43:25;;;;;;;3.13;2.10;;;;;;;14.07;99.08;96595.16;4853443;29;20854;-79
2022/07/01 11:45:53;;;;;;;4.35;2.90;;;;;;;14.04;99.38;96599.38;4853857;29;20076;-78
2022/07/01 11:48:35;;;;;;;3.45;2.60;;;;;;;14.09;99.52;96607.38;4853704;29;20049;-78
2022/07/01 11:51:08;;;;;;;5.00;2.75;;;;;;;14.09;97.56;96612.84;4853425;29;20057;-76
2022/07/01 11:53:35;;;;;;;3.40;2.50;;;;;;;14.11;96.35;96615.25;4853974;29;20064;-79